sensor_id;sensor_type;location;lat;lon;timestamp;P1;durP1;ratioP1;P2;durP2;ratioP2
62010;SDS011;47967;51.756;10.174;2022-11-15T05:03:01;9.05;;;4.30;;
62010;SDS011;47967;51.756;10.174;2022-11-15T05:07:39;6.25;;;3.90;;
62010;SDS011;47967;51.756;10.174;2022-11-15T05:12:00;6.55;;;3.85;;
62010;SDS011;47967;51.756;10.174;2022-11-15T05:16:21;6.55;;;3.97;;
62010;SDS011;47967;51.756;10.174;2022-11-15T05:20:44;9.63;;;4.65;;
62010;SDS011;47967;51.756;10.174;2022-11-15T05:25:06;8.30;;;4.53;;
62010;SDS011;47967;51.756;10.174;2022-11-15T05:29:27;9.75;;;5.05;;
62010;SDS011;47967;51.756;10.174;2022-11-15T05:33:49;6.45;;;3.92;;
62010;SDS011;47967;51.756;10.174;2022-11-15T05:38:13;7.03;;;4.30;;
62010;SDS011;47967;51.756;10.174;2022-11-15T05:42:34;6.50;;;3.97;;
62010;SDS011;47967;51.756;10.174;2022-11-15T05:46:55;11.65;;;4.20;;
62010;SDS011;47967;51.756;10.174;2022-11-15T05:51:17;7.65;;;4.07;;
62010;SDS011;47967;51.756;10.174;2022-11-15T05:55:42;7.57;;;4.20;;
62010;SDS011;47967;51.756;10.174;2022-11-15T06:00:04;10.50;;;3.97;;
62010;SDS011;47967;51.756;10.174;2022-11-15T06:04:26;8.65;;;4.20;;
62010;SDS011;47967;51.756;10.174;2022-11-15T06:08:47;8.00;;;3.70;;
62010;SDS011;47967;51.756;10.174;2022-11-15T06:13:10;7.20;;;3.83;;
62010;SDS011;47967;51.756;10.174;2022-11-15T06:17:31;4.80;;;3.25;;
62010;SDS011;47967;51.756;10.174;2022-11-15T06:21:52;8.75;;;3.97;;
62010;SDS011;47967;51.756;10.174;2022-11-15T06:26:13;8.13;;;3.83;;
62010;SDS011;47967;51.756;10.174;2022-11-15T06:30:36;7.45;;;3.90;;
62010;SDS011;47967;51.756;10.174;2022-11-15T06:34:57;6.47;;;3.83;;
62010;SDS011;47967;51.756;10.174;2022-11-15T06:39:18;8.68;;;4.32;;
62010;SDS011;47967;51.756;10.174;2022-11-15T06:43:39;7.07;;;4.00;;
62010;SDS011;47967;51.756;10.174;2022-11-15T06:48:02;6.40;;;4.07;;
62010;SDS011;47967;51.756;10.174;2022-11-15T06:52:24;8.07;;;3.80;;
62010;SDS011;47967;51.756;10.174;2022-11-15T06:56:45;8.10;;;3.95;;
62010;SDS011;47967;51.756;10.174;2022-11-15T07:01:07;6.72;;;3.78;;
62010;SDS011;47967;51.756;10.174;2022-11-15T07:05:32;6.35;;;3.78;;
62010;SDS011;47967;51.756;10.174;2022-11-15T07:09:53;7.30;;;3.67;;
62010;SDS011;47967;51.756;10.174;2022-11-15T07:14:14;8.63;;;3.80;;
62010;SDS011;47967;51.756;10.174;2022-11-15T07:18:35;9.50;;;4.35;;
62010;SDS011;47967;51.756;10.174;2022-11-15T07:23:00;7.75;;;4.15;;
62010;SDS011;47967;51.756;10.174;2022-11-15T07:27:22;5.47;;;3.65;;
62010;SDS011;47967;51.756;10.174;2022-11-15T07:31:43;8.77;;;3.72;;
62010;SDS011;47967;51.756;10.174;2022-11-15T07:36:05;5.50;;;3.33;;
62010;SDS011;47967;51.756;10.174;2022-11-15T07:40:29;8.20;;;4.07;;
62010;SDS011;47967;51.756;10.174;2022-11-15T07:44:52;4.60;;;3.10;;
62010;SDS011;47967;51.756;10.174;2022-11-15T07:49:13;6.47;;;4.00;;
62010;SDS011;47967;51.756;10.174;2022-11-15T07:53:34;7.65;;;3.40;;
62010;SDS011;47967;51.756;10.174;2022-11-15T07:58:01;7.35;;;3.38;;
62010;SDS011;47967;51.756;10.174;2022-11-15T08:02:23;6.07;;;3.33;;
62010;SDS011;47967;51.756;10.174;2022-11-15T08:06:49;7.40;;;3.42;;
62010;SDS011;47967;51.756;10.174;2022-11-15T08:11:10;7.75;;;3.40;;
62010;SDS011;47967;51.756;10.174;2022-11-15T08:15:34;7.30;;;3.20;;
62010;SDS011;47967;51.756;10.174;2022-11-15T08:19:56;5.50;;;3.20;;
62010;SDS011;47967;51.756;10.174;2022-11-15T08:24:17;6.45;;;3.17;;
62010;SDS011;47967;51.756;10.174;2022-11-15T08:28:38;5.60;;;2.90;;
62010;SDS011;47967;51.756;10.174;2022-11-15T08:33:01;5.40;;;3.30;;
62010;SDS011;47967;51.756;10.174;2022-11-15T08:37:22;5.57;;;3.13;;
62010;SDS011;47967;51.756;10.174;2022-11-15T08:41:43;4.95;;;3.13;;
62010;SDS011;47967;51.756;10.174;2022-11-15T08:46:05;5.18;;;3.03;;
62010;SDS011;47967;51.756;10.174;2022-11-15T08:50:27;5.10;;;3.13;;
62010;SDS011;47967;51.756;10.174;2022-11-15T08:54:49;6.45;;;3.28;;
62010;SDS011;47967;51.756;10.174;2022-11-15T08:59:10;5.97;;;3.33;;
62010;SDS011;47967;51.756;10.174;2022-11-15T09:03:31;7.30;;;3.30;;
62010;SDS011;47967;51.756;10.174;2022-11-15T09:07:54;6.07;;;3.42;;
62010;SDS011;47967;51.756;10.174;2022-11-15T09:12:15;6.53;;;3.63;;
62010;SDS011;47967;51.756;10.174;2022-11-15T09:16:36;14.75;;;3.70;;
62010;SDS011;47967;51.756;10.174;2022-11-15T09:20:58;9.93;;;3.70;;
62010;SDS011;47967;51.756;10.174;2022-11-15T09:25:21;5.63;;;3.10;;
62010;SDS011;47967;51.756;10.174;2022-11-15T09:29:42;5.50;;;3.03;;
62010;SDS011;47967;51.756;10.174;2022-11-15T09:34:03;3.65;;;2.80;;
62010;SDS011;47967;51.756;10.174;2022-11-15T09:38:24;6.40;;;2.88;;
62010;SDS011;47967;51.756;10.174;2022-11-15T09:42:52;5.80;;;3.20;;
62010;SDS011;47967;51.756;10.174;2022-11-15T09:47:37;7.10;;;3.00;;
62010;SDS011;47967;51.756;10.174;2022-11-15T09:52:08;5.78;;;3.00;;
62010;SDS011;47967;51.756;10.174;2022-11-15T09:56:14;4.45;;;2.90;;
62010;SDS011;47967;51.756;10.174;2022-11-15T10:00:22;4.35;;;2.72;;
62010;SDS011;47967;51.756;10.174;2022-11-15T10:04:47;10.30;;;3.88;;
62010;SDS011;47967;51.756;10.174;2022-11-15T10:08:51;4.57;;;2.67;;
62010;SDS011;47967;51.756;10.174;2022-11-15T10:13:01;3.55;;;2.30;;
62010;SDS011;47967;51.756;10.174;2022-11-15T10:17:09;7.85;;;2.58;;
62010;SDS011;47967;51.756;10.174;2022-11-15T10:21:25;5.22;;;2.90;;
62010;SDS011;47967;51.756;10.174;2022-11-15T10:25:35;11.60;;;3.15;;
62010;SDS011;47967;51.756;10.174;2022-11-15T10:29:42;5.07;;;2.90;;
62010;SDS011;47967;51.756;10.174;2022-11-15T10:33:47;7.05;;;2.92;;
62010;SDS011;47967;51.756;10.174;2022-11-15T10:37:50;5.40;;;2.42;;
62010;SDS011;47967;51.756;10.174;2022-11-15T10:41:53;4.33;;;2.73;;
62010;SDS011;47967;51.756;10.174;2022-11-15T10:45:56;4.30;;;2.67;;
62010;SDS011;47967;51.756;10.174;2022-11-15T10:50:43;6.13;;;2.75;;
62010;SDS011;47967;51.756;10.174;2022-11-15T10:54:47;10.52;;;2.90;;
62010;SDS011;47967;51.756;10.174;2022-11-15T10:58:53;7.03;;;3.00;;
62010;SDS011;47967;51.756;10.174;2022-11-15T11:02:58;3.70;;;2.65;;
62010;SDS011;47967;51.756;10.174;2022-11-15T11:07:08;5.53;;;2.47;;
62010;SDS011;47967;51.756;10.174;2022-11-15T11:11:23;6.95;;;2.90;;
62010;SDS011;47967;51.756;10.174;2022-11-15T11:15:26;4.90;;;3.20;;
62010;SDS011;47967;51.756;10.174;2022-11-15T11:23:57;4.43;;;2.88;;
62010;SDS011;47967;51.756;10.174;2022-11-15T11:28:18;4.40;;;2.80;;
62010;SDS011;47967;51.756;10.174;2022-11-15T11:32:37;7.38;;;2.65;;
62010;SDS011;47967;51.756;10.174;2022-11-15T11:36:57;6.05;;;2.83;;
62010;SDS011;47967;51.756;10.174;2022-11-15T11:41:10;4.97;;;2.70;;
62010;SDS011;47967;51.756;10.174;2022-11-15T11:45:21;4.63;;;2.70;;
62010;SDS011;47967;51.756;10.174;2022-11-15T11:49:36;4.53;;;2.50;;
62010;SDS011;47967;51.756;10.174;2022-11-15T11:53:47;9.65;;;2.92;;
62010;SDS011;47967;51.756;10.174;2022-11-15T11:57:58;3.90;;;2.58;;
62010;SDS011;47967;51.756;10.174;2022-11-15T12:02:11;3.80;;;2.80;;
62010;SDS011;47967;51.756;10.174;2022-11-15T12:06:22;4.40;;;2.77;;
62010;SDS011;47967;51.756;10.174;2022-11-15T12:10:32;2.83;;;2.58;;
62010;SDS011;47967;51.756;10.174;2022-11-15T12:14:40;7.00;;;3.00;;
62010;SDS011;47967;51.756;10.174;2022-11-15T12:18:48;6.15;;;2.90;;
62010;SDS011;47967;51.756;10.174;2022-11-15T12:22:54;5.18;;;2.72;;
62010;SDS011;47967;51.756;10.174;2022-11-15T12:27:01;7.38;;;3.00;;
62010;SDS011;47967;51.756;10.174;2022-11-15T12:31:12;3.72;;;2.63;;
62010;SDS011;47967;51.756;10.174;2022-11-15T12:35:21;4.07;;;2.65;;
62010;SDS011;47967;51.756;10.174;2022-11-15T12:49:03;5.97;;;2.67;;
62010;SDS011;47967;51.756;10.174;2022-11-15T12:53:27;4.05;;;2.90;;
62010;SDS011;47967;51.756;10.174;2022-11-15T12:57:38;5.50;;;2.78;;
62010;SDS011;47967;51.756;10.174;2022-11-15T13:01:58;4.47;;;2.60;;
62010;SDS011;47967;51.756;10.174;2022-11-15T13:06:07;6.57;;;2.90;;
62010;SDS011;47967;51.756;10.174;2022-11-15T13:10:32;6.88;;;3.05;;
62010;SDS011;47967;51.756;10.174;2022-11-15T13:14:48;6.75;;;2.65;;
62010;SDS011;47967;51.756;10.174;2022-11-15T13:18:53;4.90;;;2.80;;
62010;SDS011;47967;51.756;10.174;2022-11-15T13:23:01;5.38;;;2.80;;
62010;SDS011;47967;51.756;10.174;2022-11-15T13:27:10;5.30;;;2.58;;
62010;SDS011;47967;51.756;10.174;2022-11-15T13:31:25;5.30;;;2.53;;
62010;SDS011;47967;51.756;10.174;2022-11-15T13:35:39;7.95;;;2.70;;
62010;SDS011;47967;51.756;10.174;2022-11-15T13:39:45;5.90;;;2.97;;
62010;SDS011;47967;51.756;10.174;2022-11-15T13:43:48;5.10;;;2.92;;
62010;SDS011;47967;51.756;10.174;2022-11-15T13:47:53;7.25;;;2.80;;
62010;SDS011;47967;51.756;10.174;2022-11-15T13:51:57;4.45;;;2.70;;
62010;SDS011;47967;51.756;10.174;2022-11-15T13:56:04;5.07;;;2.47;;
62010;SDS011;47967;51.756;10.174;2022-11-15T14:00:24;5.22;;;2.50;;
62010;SDS011;47967;51.756;10.174;2022-11-15T14:04:36;6.85;;;3.00;;
62010;SDS011;47967;51.756;10.174;2022-11-15T14:08:42;5.75;;;2.78;;
62010;SDS011;47967;51.756;10.174;2022-11-15T14:13:02;5.00;;;2.50;;
62010;SDS011;47967;51.756;10.174;2022-11-15T14:17:18;5.68;;;3.38;;
62010;SDS011;47967;51.756;10.174;2022-11-15T14:21:24;6.28;;;2.58;;
62010;SDS011;47967;51.756;10.174;2022-11-15T14:25:27;7.40;;;2.90;;
62010;SDS011;47967;51.756;10.174;2022-11-15T14:29:32;4.53;;;2.75;;
62010;SDS011;47967;51.756;10.174;2022-11-15T14:33:35;4.25;;;2.65;;
62010;SDS011;47967;51.756;10.174;2022-11-15T14:37:40;6.05;;;2.42;;
62010;SDS011;47967;51.756;10.174;2022-11-15T14:41:43;5.93;;;2.38;;
62010;SDS011;47967;51.756;10.174;2022-11-15T14:45:47;6.90;;;2.47;;
62010;SDS011;47967;51.756;10.174;2022-11-15T14:49:50;4.32;;;2.45;;
62010;SDS011;47967;51.756;10.174;2022-11-15T14:53:52;4.45;;;2.65;;
62010;SDS011;47967;51.756;10.174;2022-11-15T14:57:56;8.43;;;2.75;;
62010;SDS011;47967;51.756;10.174;2022-11-15T15:02:00;5.25;;;2.50;;
62010;SDS011;47967;51.756;10.174;2022-11-15T15:06:03;3.78;;;2.42;;
62010;SDS011;47967;51.756;10.174;2022-11-15T15:10:06;5.53;;;2.65;;
62010;SDS011;47967;51.756;10.174;2022-11-15T15:14:29;4.00;;;2.33;;
62010;SDS011;47967;51.756;10.174;2022-11-15T15:18:33;3.37;;;2.47;;
62010;SDS011;47967;51.756;10.174;2022-11-15T15:22:35;5.50;;;2.45;;
62010;SDS011;47967;51.756;10.174;2022-11-15T15:26:39;3.38;;;2.40;;
62010;SDS011;47967;51.756;10.174;2022-11-15T15:30:42;5.75;;;2.90;;
62010;SDS011;47967;51.756;10.174;2022-11-15T15:34:46;5.70;;;2.45;;
62010;SDS011;47967;51.756;10.174;2022-11-15T15:38:49;4.00;;;2.35;;
62010;SDS011;47967;51.756;10.174;2022-11-15T15:42:51;4.03;;;2.33;;
62010;SDS011;47967;51.756;10.174;2022-11-15T15:46:54;5.27;;;3.00;;
62010;SDS011;47967;51.756;10.174;2022-11-15T15:51:00;4.95;;;2.70;;
62010;SDS011;47967;51.756;10.174;2022-11-15T15:55:11;5.00;;;2.80;;
62010;SDS011;47967;51.756;10.174;2022-11-15T15:59:14;5.00;;;2.87;;
62010;SDS011;47967;51.756;10.174;2022-11-15T16:03:16;9.23;;;2.80;;
62010;SDS011;47967;51.756;10.174;2022-11-15T16:07:22;4.82;;;2.65;;
62010;SDS011;47967;51.756;10.174;2022-11-15T16:11:25;4.05;;;2.53;;
62010;SDS011;47967;51.756;10.174;2022-11-15T16:15:29;6.73;;;2.33;;
62010;SDS011;47967;51.756;10.174;2022-11-15T16:19:34;5.43;;;2.78;;
62010;SDS011;47967;51.756;10.174;2022-11-15T16:23:38;6.20;;;2.73;;
62010;SDS011;47967;51.756;10.174;2022-11-15T16:27:41;4.88;;;2.50;;
62010;SDS011;47967;51.756;10.174;2022-11-15T16:31:46;3.97;;;2.40;;
62010;SDS011;47967;51.756;10.174;2022-11-15T16:35:48;5.70;;;2.90;;
62010;SDS011;47967;51.756;10.174;2022-11-15T16:39:53;5.60;;;2.70;;
62010;SDS011;47967;51.756;10.174;2022-11-15T16:44:01;5.15;;;2.50;;
62010;SDS011;47967;51.756;10.174;2022-11-15T16:48:04;5.87;;;2.73;;
62010;SDS011;47967;51.756;10.174;2022-11-15T16:52:06;4.55;;;2.60;;
62010;SDS011;47967;51.756;10.174;2022-11-15T16:56:16;4.17;;;2.70;;
62010;SDS011;47967;51.756;10.174;2022-11-15T17:00:21;5.22;;;2.85;;
62010;SDS011;47967;51.756;10.174;2022-11-15T17:04:23;8.93;;;3.00;;
62010;SDS011;47967;51.756;10.174;2022-11-15T17:08:31;7.40;;;3.38;;
62010;SDS011;47967;51.756;10.174;2022-11-15T17:12:35;4.97;;;2.78;;
62010;SDS011;47967;51.756;10.174;2022-11-15T17:16:39;4.93;;;2.92;;
62010;SDS011;47967;51.756;10.174;2022-11-15T17:20:44;7.43;;;3.50;;
62010;SDS011;47967;51.756;10.174;2022-11-15T17:24:47;4.20;;;2.83;;
62010;SDS011;47967;51.756;10.174;2022-11-15T17:28:54;5.80;;;3.30;;
62010;SDS011;47967;51.756;10.174;2022-11-15T17:32:57;8.30;;;3.22;;
62010;SDS011;47967;51.756;10.174;2022-11-15T17:37:01;4.05;;;2.70;;
62010;SDS011;47967;51.756;10.174;2022-11-15T17:41:04;6.80;;;2.80;;
62010;SDS011;47967;51.756;10.174;2022-11-15T17:45:11;7.07;;;2.95;;
62010;SDS011;47967;51.756;10.174;2022-11-15T17:49:13;4.25;;;3.00;;
62010;SDS011;47967;51.756;10.174;2022-11-15T17:53:17;4.78;;;3.20;;
62010;SDS011;47967;51.756;10.174;2022-11-15T17:57:20;5.40;;;3.07;;
62010;SDS011;47967;51.756;10.174;2022-11-15T18:01:24;5.97;;;3.33;;
62010;SDS011;47967;51.756;10.174;2022-11-15T18:05:28;6.30;;;3.30;;
62010;SDS011;47967;51.756;10.174;2022-11-15T18:09:31;6.33;;;2.83;;
62010;SDS011;47967;51.756;10.174;2022-11-15T18:13:34;4.67;;;2.93;;
62010;SDS011;47967;51.756;10.174;2022-11-15T18:21:41;6.47;;;3.28;;
62010;SDS011;47967;51.756;10.174;2022-11-15T18:25:59;6.13;;;3.00;;
62010;SDS011;47967;51.756;10.174;2022-11-15T18:34:07;6.10;;;3.20;;
62010;SDS011;47967;51.756;10.174;2022-11-15T18:38:10;6.32;;;2.65;;
62010;SDS011;47967;51.756;10.174;2022-11-15T18:42:13;7.53;;;2.63;;
62010;SDS011;47967;51.756;10.174;2022-11-15T18:46:16;3.87;;;2.57;;
62010;SDS011;47967;51.756;10.174;2022-11-15T18:50:22;8.07;;;2.85;;
62010;SDS011;47967;51.756;10.174;2022-11-15T18:54:24;5.15;;;3.17;;
62010;SDS011;47967;51.756;10.174;2022-11-15T18:58:32;4.43;;;2.35;;
62010;SDS011;47967;51.756;10.174;2022-11-15T19:02:37;4.07;;;2.40;;
62010;SDS011;47967;51.756;10.174;2022-11-15T19:06:42;5.23;;;2.50;;
62010;SDS011;47967;51.756;10.174;2022-11-15T19:10:45;5.55;;;3.03;;
62010;SDS011;47967;51.756;10.174;2022-11-15T19:14:48;7.00;;;3.67;;
62010;SDS011;47967;51.756;10.174;2022-11-15T19:18:54;6.70;;;2.93;;
62010;SDS011;47967;51.756;10.174;2022-11-15T19:22:59;3.03;;;2.40;;
62010;SDS011;47967;51.756;10.174;2022-11-15T19:27:02;4.38;;;2.55;;
62010;SDS011;47967;51.756;10.174;2022-11-15T19:31:04;4.50;;;2.37;;
62010;SDS011;47967;51.756;10.174;2022-11-15T19:35:08;5.53;;;2.63;;
62010;SDS011;47967;51.756;10.174;2022-11-15T19:39:13;3.57;;;2.63;;
62010;SDS011;47967;51.756;10.174;2022-11-15T19:43:18;5.65;;;2.70;;
62010;SDS011;47967;51.756;10.174;2022-11-15T19:47:21;7.17;;;3.00;;
62010;SDS011;47967;51.756;10.174;2022-11-15T19:51:24;5.67;;;3.00;;
62010;SDS011;47967;51.756;10.174;2022-11-15T19:55:29;6.82;;;2.90;;
62010;SDS011;47967;51.756;10.174;2022-11-15T19:59:31;3.00;;;2.45;;
62010;SDS011;47967;51.756;10.174;2022-11-15T20:03:34;4.17;;;2.33;;
62010;SDS011;47967;51.756;10.174;2022-11-15T20:07:37;4.07;;;2.05;;
62010;SDS011;47967;51.756;10.174;2022-11-15T20:11:41;2.58;;;2.05;;
62010;SDS011;47967;51.756;10.174;2022-11-15T20:15:44;1.83;;;1.67;;
62010;SDS011;47967;51.756;10.174;2022-11-15T20:19:46;2.20;;;1.80;;
62010;SDS011;47967;51.756;10.174;2022-11-15T20:23:49;6.47;;;2.07;;
62010;SDS011;47967;51.756;10.174;2022-11-15T20:27:53;3.13;;;2.40;;
62010;SDS011;47967;51.756;10.174;2022-11-15T20:31:56;5.95;;;2.40;;
62010;SDS011;47967;51.756;10.174;2022-11-15T20:36:01;6.20;;;2.40;;
62010;SDS011;47967;51.756;10.174;2022-11-15T20:40:05;4.38;;;2.30;;
62010;SDS011;47967;51.756;10.174;2022-11-15T20:44:10;3.80;;;2.45;;
62010;SDS011;47967;51.756;10.174;2022-11-15T20:48:13;4.47;;;2.58;;
62010;SDS011;47967;51.756;10.174;2022-11-15T20:52:16;3.60;;;2.67;;
62010;SDS011;47967;51.756;10.174;2022-11-15T20:56:19;4.37;;;2.47;;
62010;SDS011;47967;51.756;10.174;2022-11-15T21:00:24;3.67;;;2.72;;
62010;SDS011;47967;51.756;10.174;2022-11-15T21:04:27;4.72;;;3.13;;
62010;SDS011;47967;51.756;10.174;2022-11-15T21:08:30;6.55;;;2.95;;
62010;SDS011;47967;51.756;10.174;2022-11-15T21:16:56;4.18;;;2.50;;
62010;SDS011;47967;51.756;10.174;2022-11-15T21:21:03;5.72;;;2.80;;
62010;SDS011;47967;51.756;10.174;2022-11-15T21:25:06;4.97;;;2.70;;
62010;SDS011;47967;51.756;10.174;2022-11-15T21:33:18;5.75;;;2.60;;
62010;SDS011;47967;51.756;10.174;2022-11-15T21:37:23;4.85;;;2.60;;
62010;SDS011;47967;51.756;10.174;2022-11-15T21:41:26;4.83;;;2.77;;
62010;SDS011;47967;51.756;10.174;2022-11-15T21:45:29;4.07;;;2.75;;
62010;SDS011;47967;51.756;10.174;2022-11-15T21:49:33;4.93;;;2.40;;
62010;SDS011;47967;51.756;10.174;2022-11-15T21:53:35;3.97;;;2.30;;
62010;SDS011;47967;51.756;10.174;2022-11-15T21:57:38;5.80;;;2.53;;
